首页
METAR-TAF:

METAR-TAF

机场 :

Truckee-Tahoe Airport

Truckee, 加利福尼亚州, 美国

纬度: 39-19N, 经度: 120-08W, 海拔: 1798米

当前天气观测

该预报发布于18分钟前的10:35 UTC
静风
温度 0°C
湿度 86%
气压 1017 hPa
能見度: 16.1公里
天空无云

METAR: KTRK 191035Z AUTO 00000KT 10SM CLR 00/M02 A3004 RMK AO2

时间: 03:53 (10:53 UTC)

预报

该预报发布于5小时和33分钟前的05:20 UTC
预报有效从19日的 06点(UTC)到 20日的 06点(UTC)
风速2节,风向多变
能見度: 10公里
少量云层高于9000英尺
散云层高于22000英尺
从 19日的 2100点(UTC)
风速7节,风向西转西南
能見度: 10公里
散云层高于22000英尺
从 20日的 0300点(UTC)
风速5节,风向多变
能見度: 10公里
少量云层高于9000英尺

TAF: KTRK 190520Z 1906/2006 VRB02KT P6SM FEW090 SCT220 FM192100 25007KT P6SM SCT220 FM200300 VRB05KT P6SM FEW090

超过4000个机场的气象观测和天气预报(METAR&TAF报告)。

可查询的气象台以黄色和红色小点在地图上表示。

将鼠标移到小点上方,可查看气象台名称。

然后点击查看天气观测和预报。

如需切换地图:点击带黑十字的绿色按钮放大地图;点击带横线的绿色按钮缩小地图;或者点击绿色箭头查看邻近地区的地图。


METAR-TAF: